createdAt,value
2022-08-14T00:03:29.485Z,0.00
2022-08-14T00:08:44.944Z,0.00
2022-08-14T00:13:27.790Z,0.00
2022-08-14T00:18:30.409Z,0.00
2022-08-14T00:23:29.104Z,0.00
2022-08-14T00:28:32.958Z,0.00
2022-08-14T00:33:51.754Z,0.00
2022-08-14T00:38:32.029Z,0.00
2022-08-14T00:43:31.680Z,0.00
2022-08-14T00:48:34.723Z,0.00
2022-08-14T00:53:32.112Z,0.00
2022-08-14T00:58:33.361Z,0.00
2022-08-14T01:03:32.644Z,0.00
2022-08-14T01:08:57.768Z,0.00
2022-08-14T01:13:43.080Z,0.00
2022-08-14T01:18:34.823Z,0.00
2022-08-14T01:23:46.475Z,0.00
2022-08-14T01:28:56.552Z,0.00
2022-08-14T01:33:52.211Z,0.00
2022-08-14T01:38:38.809Z,0.00
2022-08-14T01:43:36.766Z,0.00
2022-08-14T01:48:38.865Z,0.00
2022-08-14T01:53:38.494Z,0.00
2022-08-14T01:58:57.270Z,0.00
2022-08-14T02:03:40.260Z,0.00
2022-08-14T02:08:52.381Z,0.00
2022-08-14T02:13:40.440Z,0.00
2022-08-14T02:18:41.308Z,0.00
2022-08-14T02:23:40.190Z,0.00
2022-08-14T02:28:57.862Z,0.00
2022-08-14T02:33:39.782Z,0.00
2022-08-14T02:38:39.722Z,0.00
2022-08-14T02:43:48.573Z,0.00
2022-08-14T02:49:01.490Z,0.00
2022-08-14T02:53:42.356Z,0.00
2022-08-14T02:58:41.783Z,0.00
2022-08-14T03:03:41.520Z,0.00
2022-08-14T03:08:45.201Z,0.00
2022-08-14T03:13:43.231Z,0.00
2022-08-14T03:18:43.768Z,0.00
2022-08-14T03:23:42.994Z,0.00
2022-08-14T03:28:44.439Z,0.00
2022-08-14T03:33:51.796Z,0.00
2022-08-14T03:39:12.462Z,0.00
2022-08-14T03:43:46.670Z,0.00
2022-08-14T03:48:46.612Z,0.00
2022-08-14T03:53:46.575Z,0.00
2022-08-14T03:58:49.701Z,0.00
2022-08-14T04:03:48.586Z,5.62
2022-08-14T04:08:48.537Z,16.88
2022-08-14T04:13:49.314Z,22.50
2022-08-14T04:18:49.307Z,33.75
2022-08-14T04:23:57.167Z,45.00
2022-08-14T04:29:09.145Z,56.25
2022-08-14T04:33:50.532Z,73.12
2022-08-14T04:38:53.971Z,90.00
2022-08-14T04:43:54.074Z,112.50
2022-08-14T04:48:55.399Z,129.38
2022-08-14T04:53:53.098Z,146.25
2022-08-14T04:58:54.208Z,163.12
2022-08-14T05:03:56.306Z,180.00
2022-08-14T05:09:00.095Z,185.62
2022-08-14T05:14:43.383Z,196.88
2022-08-14T05:19:19.124Z,191.25
2022-08-14T05:23:57.405Z,191.25
2022-08-14T05:28:59.306Z,202.50
2022-08-14T05:33:58.492Z,202.50
2022-08-14T05:39:00.613Z,213.75
2022-08-14T05:44:01.010Z,213.75
2022-08-14T05:49:00.205Z,230.62
2022-08-14T05:54:11.446Z,230.62
2022-08-14T05:59:02.368Z,253.12
2022-08-14T06:04:04.413Z,270.00
2022-08-14T06:09:06.249Z,275.62
2022-08-14T06:14:12.269Z,292.50
2022-08-14T06:19:05.137Z,298.12
2022-08-14T06:24:04.956Z,303.75
2022-08-14T06:29:05.901Z,298.12
2022-08-14T06:35:09.652Z,298.12
2022-08-14T06:39:09.982Z,303.75
2022-08-14T06:44:04.869Z,315.00
2022-08-14T06:49:05.977Z,326.25
2022-08-14T06:54:08.514Z,331.88
2022-08-14T06:59:07.629Z,326.25
2022-08-14T07:04:12.729Z,331.88
2022-08-14T07:09:10.027Z,337.50
2022-08-14T07:14:09.882Z,337.50
2022-08-14T07:19:09.019Z,337.50
2022-08-14T07:24:22.050Z,348.75
2022-08-14T07:29:11.131Z,354.38
2022-08-14T07:34:12.141Z,354.38
2022-08-14T07:39:13.424Z,348.75
2022-08-14T07:44:32.351Z,348.75
2022-08-14T07:49:17.600Z,348.75
2022-08-14T07:54:16.440Z,348.75
2022-08-14T07:59:13.672Z,348.75
2022-08-14T08:04:18.930Z,348.75
2022-08-14T08:09:16.823Z,354.38
2022-08-14T08:14:17.176Z,360.00
2022-08-14T08:19:17.740Z,365.62
2022-08-14T08:24:19.714Z,365.62
2022-08-14T08:29:17.767Z,365.62
2022-08-14T08:34:20.463Z,365.62
2022-08-14T08:39:22.793Z,371.25
2022-08-14T08:44:32.023Z,371.25
2022-08-14T08:49:22.291Z,348.75
2022-08-14T08:54:26.554Z,354.38
2022-08-14T08:59:30.895Z,360.00
2022-08-14T09:04:25.255Z,360.00
2022-08-14T09:09:30.481Z,360.00
2022-08-14T09:14:25.053Z,360.00
2022-08-14T09:19:28.226Z,360.00
2022-08-14T09:24:28.220Z,376.88
2022-08-14T09:29:28.796Z,382.50
2022-08-14T09:34:28.042Z,393.75
2022-08-14T09:39:32.541Z,388.12
2022-08-14T09:44:27.938Z,382.50
2022-08-14T09:49:30.068Z,382.50
2022-08-14T09:54:29.183Z,399.38
2022-08-14T09:59:33.494Z,393.75
2022-08-14T10:04:46.049Z,405.00
2022-08-14T10:09:34.807Z,393.75
2022-08-14T10:14:35.347Z,393.75
2022-08-14T10:19:31.125Z,388.12
2022-08-14T10:24:37.149Z,393.75
2022-08-14T10:29:33.029Z,393.75
2022-08-14T10:34:33.453Z,388.12
2022-08-14T10:39:31.803Z,376.88
2022-08-14T10:44:33.143Z,371.25
2022-08-14T10:49:34.281Z,365.62
2022-08-14T10:54:40.210Z,388.12
2022-08-14T10:59:39.169Z,376.88
2022-08-14T11:04:37.461Z,360.00
2022-08-14T11:09:41.987Z,365.62
2022-08-14T11:14:37.171Z,365.62
2022-08-14T11:19:37.145Z,371.25
2022-08-14T11:24:50.516Z,393.75
2022-08-14T11:29:38.181Z,427.50
2022-08-14T11:34:39.139Z,427.50
2022-08-14T11:39:38.430Z,444.38
2022-08-14T11:44:45.624Z,478.12
2022-08-14T11:49:41.524Z,461.25
2022-08-14T11:54:41.889Z,466.88
2022-08-14T11:59:44.135Z,461.25
2022-08-14T12:04:41.622Z,466.88
2022-08-14T12:09:43.137Z,421.88
2022-08-14T12:14:44.375Z,438.75
2022-08-14T12:19:42.369Z,450.00
2022-08-14T12:24:43.583Z,427.50
2022-08-14T12:29:43.470Z,405.00
2022-08-14T12:34:45.610Z,399.38
2022-08-14T12:39:44.768Z,444.38
2022-08-14T12:44:46.132Z,421.88
2022-08-14T12:49:48.527Z,444.38
2022-08-14T12:55:01.613Z,461.25
2022-08-14T12:59:49.612Z,433.12
2022-08-14T13:04:50.800Z,466.88
2022-08-14T13:09:52.153Z,461.25
2022-08-14T13:14:51.257Z,455.62
2022-08-14T13:19:52.593Z,450.00
2022-08-14T13:24:53.734Z,461.25
2022-08-14T13:29:54.798Z,466.88
2022-08-14T13:34:54.565Z,478.12
2022-08-14T13:40:00.816Z,489.38
2022-08-14T13:44:57.011Z,500.62
2022-08-14T13:49:58.495Z,506.25
2022-08-14T13:54:59.600Z,523.12
2022-08-14T13:59:58.711Z,528.75
2022-08-14T14:04:59.822Z,534.38
2022-08-14T14:10:03.675Z,540.00
2022-08-14T14:15:04.858Z,568.12
2022-08-14T14:20:02.997Z,545.62
2022-08-14T14:25:03.664Z,534.38
2022-08-14T14:30:04.759Z,534.38
2022-08-14T14:35:05.709Z,528.75
2022-08-14T14:40:54.524Z,534.38
2022-08-14T14:45:04.736Z,556.88
2022-08-14T14:50:04.982Z,556.88
2022-08-14T14:55:06.100Z,624.38
2022-08-14T15:00:06.292Z,568.12
2022-08-14T15:05:08.852Z,534.38
2022-08-14T15:10:27.323Z,540.00
2022-08-14T15:15:09.536Z,630.00
2022-08-14T15:20:17.255Z,517.50
2022-08-14T15:25:10.630Z,573.75
2022-08-14T15:30:11.791Z,675.00
2022-08-14T15:35:11.719Z,607.50
2022-08-14T15:40:16.460Z,534.38
2022-08-14T15:45:14.053Z,472.50
2022-08-14T15:50:14.012Z,433.12
2022-08-14T15:55:14.795Z,511.88
2022-08-14T16:00:37.881Z,568.12
2022-08-14T16:05:16.304Z,523.12
2022-08-14T16:10:29.140Z,461.25
2022-08-14T16:15:17.134Z,438.75
2022-08-14T16:20:42.055Z,416.25
2022-08-14T16:25:18.123Z,360.00
2022-08-14T16:30:20.760Z,331.88
2022-08-14T16:35:17.567Z,326.25
2022-08-14T16:40:16.666Z,343.12
2022-08-14T16:45:17.798Z,331.88
2022-08-14T16:50:42.948Z,292.50
2022-08-14T16:55:19.915Z,236.25
2022-08-14T17:00:28.284Z,219.38
2022-08-14T17:05:22.003Z,208.12
2022-08-14T17:10:27.930Z,196.88
2022-08-14T17:15:23.078Z,174.38
2022-08-14T17:20:54.556Z,157.50
2022-08-14T17:25:24.119Z,146.25
2022-08-14T17:30:32.157Z,135.00
2022-08-14T17:35:24.126Z,123.75
2022-08-14T17:40:24.098Z,112.50
2022-08-14T17:45:27.060Z,101.25
2022-08-14T17:50:59.367Z,90.00
2022-08-14T17:56:01.591Z,78.75
2022-08-14T18:00:27.499Z,61.88
2022-08-14T18:06:09.799Z,45.00
2022-08-14T18:10:52.118Z,33.75
2022-08-14T18:15:35.497Z,22.50
2022-08-14T18:21:42.152Z,16.88
2022-08-14T18:25:29.157Z,11.25
2022-08-14T18:30:32.073Z,5.62
2022-08-14T18:35:46.322Z,5.62
2022-08-14T18:40:34.563Z,0.00
2022-08-14T18:45:29.458Z,0.00
2022-08-14T18:50:31.758Z,0.00
2022-08-14T18:55:30.872Z,0.00
2022-08-14T19:00:32.713Z,0.00
2022-08-14T19:05:33.699Z,0.00
2022-08-14T19:10:37.363Z,0.00
2022-08-14T19:15:32.807Z,0.00
2022-08-14T19:20:37.754Z,0.00
2022-08-14T19:25:33.780Z,0.00
2022-08-14T19:30:33.106Z,0.00
2022-08-14T19:35:48.936Z,0.00
2022-08-14T19:40:35.326Z,0.00
2022-08-14T19:45:33.882Z,0.00
2022-08-14T19:50:40.286Z,0.00
2022-08-14T19:55:36.380Z,0.00
2022-08-14T20:00:35.794Z,0.00
2022-08-14T20:05:43.009Z,0.00
2022-08-14T20:11:04.631Z,0.00
2022-08-14T20:16:00.111Z,0.00
2022-08-14T20:20:35.787Z,0.00
2022-08-14T20:25:36.679Z,0.00
2022-08-14T20:30:36.436Z,0.00
2022-08-14T20:35:41.892Z,0.00
2022-08-14T20:40:35.111Z,0.00
2022-08-14T20:45:34.926Z,0.00
2022-08-14T20:50:44.814Z,0.00
2022-08-14T20:55:36.998Z,0.00
2022-08-14T21:00:38.519Z,0.00
2022-08-14T21:05:40.040Z,0.00
2022-08-14T21:10:44.018Z,0.00
2022-08-14T21:15:37.738Z,0.00
2022-08-14T21:20:36.118Z,0.00
2022-08-14T21:25:38.327Z,0.00
2022-08-14T21:30:51.349Z,0.00
2022-08-14T21:35:41.779Z,0.00
2022-08-14T21:40:42.832Z,0.00
2022-08-14T21:45:40.223Z,0.00
2022-08-14T21:51:02.208Z,0.00
2022-08-14T21:55:43.107Z,0.00
2022-08-14T22:00:43.743Z,0.00
2022-08-14T22:05:45.928Z,0.00
2022-08-14T22:10:44.661Z,0.00
2022-08-14T22:15:43.857Z,0.00
2022-08-14T22:20:45.506Z,0.00
2022-08-14T22:25:44.586Z,0.00
2022-08-14T22:30:45.010Z,0.00
2022-08-14T22:35:46.805Z,0.00
2022-08-14T22:41:04.771Z,0.00
2022-08-14T22:45:55.713Z,0.00
2022-08-14T22:50:49.206Z,0.00
2022-08-14T22:55:47.765Z,0.00
2022-08-14T23:00:46.341Z,0.00
2022-08-14T23:05:52.669Z,0.00
2022-08-14T23:10:48.427Z,0.00
2022-08-14T23:15:47.854Z,0.00
2022-08-14T23:20:49.204Z,0.00
2022-08-14T23:26:00.575Z,0.00
2022-08-14T23:30:51.364Z,0.00
2022-08-14T23:35:59.246Z,0.00
2022-08-14T23:40:51.217Z,0.00
2022-08-14T23:45:52.441Z,0.00
2022-08-14T23:50:53.406Z,0.00
2022-08-14T23:55:54.506Z,0.00
